createdAt,value
2022-11-01T00:01:51.071Z,91.92
2022-11-01T00:04:18.854Z,92.10
2022-11-01T00:06:46.081Z,92.21
2022-11-01T00:09:12.959Z,92.69
2022-11-01T00:11:40.089Z,92.38
2022-11-01T00:14:07.365Z,92.61
2022-11-01T00:16:34.488Z,92.42
2022-11-01T00:19:01.312Z,92.19
2022-11-01T00:21:28.415Z,93.00
2022-11-01T00:23:55.254Z,93.11
2022-11-01T00:26:23.801Z,92.92
2022-11-01T00:28:51.289Z,93.17
2022-11-01T00:31:19.526Z,93.84
2022-11-01T00:33:46.785Z,93.61
2022-11-01T00:36:13.819Z,93.01
2022-11-01T00:38:40.680Z,93.21
2022-11-01T00:41:07.694Z,93.52
2022-11-01T00:43:36.883Z,93.68
2022-11-01T00:46:04.399Z,93.19
2022-11-01T00:48:31.319Z,92.60
2022-11-01T00:50:58.052Z,93.14
2022-11-01T00:53:24.892Z,93.02
2022-11-01T00:55:51.648Z,93.44
2022-11-01T00:58:19.716Z,93.04
2022-11-01T01:00:48.099Z,93.31
2022-11-01T01:03:15.071Z,93.17
2022-11-01T01:05:41.783Z,93.42
2022-11-01T01:08:08.622Z,92.76
2022-11-01T01:10:35.684Z,93.27
2022-11-01T01:13:03.138Z,93.75
2022-11-01T01:15:30.322Z,93.67
2022-11-01T01:17:57.357Z,93.96
2022-11-01T01:20:24.528Z,93.87
2022-11-01T01:22:51.416Z,93.59
2022-11-01T01:25:20.104Z,93.37
2022-11-01T01:27:47.160Z,93.37
2022-11-01T01:30:15.041Z,93.10
2022-11-01T01:32:42.012Z,93.67
2022-11-01T01:35:09.538Z,93.19
2022-11-01T01:37:36.407Z,93.67
2022-11-01T01:40:04.167Z,93.95
2022-11-01T01:42:39.810Z,93.95
2022-11-01T01:45:31.508Z,93.99
2022-11-01T01:48:11.531Z,94.44
2022-11-01T01:50:55.831Z,94.24
2022-11-01T01:53:28.757Z,93.58
2022-11-01T01:56:06.456Z,93.85
2022-11-01T01:58:37.200Z,95.03
2022-11-01T02:01:04.381Z,94.55
2022-11-01T02:03:32.691Z,94.89
2022-11-01T02:06:11.957Z,93.88
2022-11-01T02:08:48.005Z,94.86
2022-11-01T02:11:15.865Z,95.29
2022-11-01T02:13:42.770Z,94.91
2022-11-01T02:16:32.657Z,95.27
2022-11-01T02:19:09.276Z,95.76
2022-11-01T02:21:44.402Z,95.08
2022-11-01T02:24:38.912Z,94.54
2022-11-01T02:27:08.820Z,95.41
2022-11-01T02:30:00.352Z,94.47
2022-11-01T02:32:49.336Z,94.69
2022-11-01T02:35:38.645Z,95.54
2022-11-01T02:38:31.466Z,95.25
2022-11-01T02:41:14.433Z,95.34
2022-11-01T02:43:47.399Z,95.16
2022-11-01T02:46:33.388Z,94.90
2022-11-01T02:49:00.303Z,94.39
2022-11-01T02:51:27.710Z,94.32
2022-11-01T02:53:54.524Z,94.12
2022-11-01T02:56:22.855Z,94.06
2022-11-01T02:58:51.629Z,94.14
2022-11-01T03:01:23.030Z,94.37
2022-11-01T03:03:53.535Z,94.15
2022-11-01T03:06:39.988Z,93.74
2022-11-01T03:09:10.158Z,94.44
2022-11-01T03:11:47.114Z,94.67
2022-11-01T03:14:34.907Z,94.04
2022-11-01T03:17:20.751Z,94.60
2022-11-01T03:19:52.026Z,94.68
2022-11-01T03:22:23.658Z,94.79
2022-11-01T03:24:53.115Z,95.08
2022-11-01T03:27:37.688Z,95.90
2022-11-01T03:30:07.070Z,95.13
2022-11-01T03:32:38.747Z,95.08
2022-11-01T03:35:07.403Z,95.08
2022-11-01T03:37:36.515Z,94.94
2022-11-01T03:40:05.043Z,94.86
2022-11-01T03:42:32.626Z,94.64
2022-11-01T03:45:04.624Z,94.00
2022-11-01T03:47:31.439Z,93.87
2022-11-01T03:50:17.924Z,93.49
2022-11-01T03:52:45.042Z,93.52
2022-11-01T03:55:18.366Z,94.11
2022-11-01T03:57:52.295Z,93.35
2022-11-01T04:00:51.552Z,93.44
2022-11-01T04:03:18.472Z,93.49
2022-11-01T04:05:45.454Z,93.68
2022-11-01T04:08:12.505Z,93.65
2022-11-01T04:10:39.345Z,92.86
2022-11-01T04:13:06.294Z,92.96
2022-11-01T04:15:51.809Z,93.37
2022-11-01T04:18:42.209Z,92.79
2022-11-01T04:21:12.094Z,92.99
2022-11-01T04:23:38.909Z,92.38
2022-11-01T04:26:07.383Z,93.06
2022-11-01T04:28:34.477Z,93.79
2022-11-01T04:31:01.257Z,92.72
2022-11-01T04:33:28.102Z,92.98
2022-11-01T04:35:54.811Z,92.43
2022-11-01T04:38:21.830Z,92.18
2022-11-01T04:40:49.261Z,93.29
2022-11-01T04:43:16.285Z,93.95
2022-11-01T04:45:43.144Z,93.86
2022-11-01T04:48:13.671Z,94.39
2022-11-01T04:50:42.148Z,93.89
2022-11-01T04:53:09.933Z,94.07
2022-11-01T04:55:36.756Z,93.27
2022-11-01T04:58:04.566Z,92.31
2022-11-01T05:00:33.354Z,94.07
2022-11-01T05:03:02.479Z,95.43
2022-11-01T05:05:30.053Z,96.16
2022-11-01T05:08:06.946Z,96.78
2022-11-01T05:10:34.885Z,97.58
2022-11-01T05:13:02.407Z,97.51
2022-11-01T05:15:29.452Z,97.66
2022-11-01T05:17:56.767Z,97.82
2022-11-01T05:20:23.726Z,97.46
2022-11-01T05:22:50.435Z,97.53
2022-11-01T05:25:18.043Z,97.45
2022-11-01T05:27:44.834Z,97.29
2022-11-01T05:30:12.341Z,97.51
2022-11-01T05:32:39.116Z,98.08
2022-11-01T05:35:06.369Z,98.15
2022-11-01T05:37:33.243Z,97.80
2022-11-01T05:40:00.052Z,97.95
2022-11-01T05:42:26.923Z,97.44
2022-11-01T05:44:53.733Z,96.79
2022-11-01T05:47:20.547Z,95.80
2022-11-01T05:49:47.348Z,96.53
2022-11-01T05:52:14.097Z,97.06
2022-11-01T05:54:40.956Z,96.91
2022-11-01T05:57:07.678Z,96.29
2022-11-01T05:59:34.419Z,97.47
2022-11-01T06:02:01.391Z,98.57
2022-11-01T06:04:28.228Z,97.98
2022-11-01T06:06:55.023Z,98.81
2022-11-01T06:09:21.801Z,98.24
2022-11-01T06:11:49.124Z,98.71
2022-11-01T06:14:18.579Z,98.68
2022-11-01T06:16:45.438Z,98.37
2022-11-01T06:19:12.312Z,97.92
2022-11-01T06:21:39.046Z,98.12
2022-11-01T06:24:06.075Z,98.24
2022-11-01T06:26:32.896Z,98.75
2022-11-01T06:29:03.555Z,97.82
2022-11-01T06:31:30.391Z,97.63
2022-11-01T06:33:57.342Z,97.28
2022-11-01T06:36:24.308Z,97.60
2022-11-01T06:38:51.317Z,97.93
2022-11-01T06:41:18.279Z,97.12
2022-11-01T06:43:45.071Z,97.70
2022-11-01T06:46:11.914Z,97.65
2022-11-01T06:48:38.622Z,97.67
2022-11-01T06:51:05.619Z,97.76
2022-11-01T06:53:32.513Z,97.98
2022-11-01T06:56:00.448Z,98.47
2022-11-01T06:58:27.847Z,97.75
2022-11-01T07:00:54.736Z,98.27
2022-11-01T07:03:21.488Z,98.49
2022-11-01T07:05:50.107Z,97.98
2022-11-01T07:08:17.005Z,98.15
2022-11-01T07:10:44.000Z,98.31
2022-11-01T07:13:12.835Z,98.51
2022-11-01T07:15:39.840Z,98.29
2022-11-01T07:18:08.365Z,98.50
2022-11-01T07:20:41.507Z,98.66
2022-11-01T07:23:17.227Z,98.50
2022-11-01T07:25:44.714Z,98.55
2022-11-01T07:28:13.985Z,98.74
2022-11-01T07:30:40.941Z,98.01
2022-11-01T07:33:07.701Z,98.49
2022-11-01T07:35:35.068Z,97.64
2022-11-01T07:38:04.016Z,96.51
2022-11-01T07:40:35.926Z,95.75
2022-11-01T07:43:02.930Z,95.55
2022-11-01T07:45:31.353Z,95.34
2022-11-01T07:48:05.688Z,95.83
2022-11-01T07:50:34.329Z,95.80
2022-11-01T07:53:13.326Z,95.01
2022-11-01T07:55:40.724Z,95.75
2022-11-01T07:58:08.426Z,95.22
2022-11-01T08:03:19.298Z,95.02
2022-11-01T08:05:47.686Z,95.30
2022-11-01T08:08:15.188Z,95.73
2022-11-01T08:10:43.645Z,95.85
2022-11-01T08:13:19.044Z,95.55
2022-11-01T08:15:46.910Z,96.61
2022-11-01T08:18:14.237Z,96.41
2022-11-01T08:20:43.012Z,96.09
2022-11-01T08:23:10.970Z,95.83
2022-11-01T08:25:37.858Z,95.77
2022-11-01T08:28:11.569Z,94.57
2022-11-01T08:30:39.966Z,94.85
2022-11-01T08:33:07.054Z,95.39
2022-11-01T08:35:35.140Z,95.62
2022-11-01T08:38:03.500Z,96.39
2022-11-01T08:40:31.895Z,95.87
2022-11-01T08:42:59.172Z,95.00
2022-11-01T08:45:26.802Z,95.75
2022-11-01T08:48:00.787Z,96.47
2022-11-01T08:50:27.880Z,95.86
2022-11-01T08:52:55.136Z,96.38
2022-11-01T08:55:23.062Z,96.03
2022-11-01T08:57:50.087Z,95.52
2022-11-01T09:00:17.632Z,95.14
2022-11-01T09:02:44.384Z,95.07
2022-11-01T09:05:11.455Z,94.01
2022-11-01T09:07:38.753Z,93.00
2022-11-01T09:10:06.672Z,93.26
2022-11-01T09:12:33.715Z,93.01
2022-11-01T09:15:00.822Z,93.60
2022-11-01T09:17:27.762Z,93.08
2022-11-01T09:19:54.686Z,94.29
2022-11-01T09:22:21.444Z,94.47
2022-11-01T09:24:48.441Z,94.23
2022-11-01T09:27:16.394Z,93.75
2022-11-01T09:29:45.360Z,93.24
2022-11-01T09:32:14.976Z,94.19
2022-11-01T09:34:41.771Z,94.33
2022-11-01T09:37:08.557Z,93.85
2022-11-01T09:39:35.297Z,94.08
2022-11-01T09:42:05.643Z,93.35
2022-11-01T09:44:40.047Z,93.98
2022-11-01T09:47:22.431Z,93.60
2022-11-01T09:49:55.434Z,93.18
2022-11-01T09:52:24.111Z,92.22
2022-11-01T09:54:51.282Z,92.99
2022-11-01T09:57:33.364Z,93.38
2022-11-01T10:00:13.865Z,93.55
2022-11-01T10:03:18.424Z,93.29
2022-11-01T10:06:04.546Z,93.35
2022-11-01T10:08:34.470Z,93.08
2022-11-01T10:11:04.320Z,93.13
2022-11-01T10:13:53.969Z,93.26
2022-11-01T10:16:43.469Z,92.82
2022-11-01T10:19:15.891Z,92.91
2022-11-01T10:21:49.949Z,93.39
2022-11-01T10:24:24.983Z,91.27
2022-11-01T10:26:56.579Z,90.68
2022-11-01T10:29:30.856Z,90.95
2022-11-01T10:31:58.393Z,89.78
2022-11-01T10:34:36.232Z,90.16
2022-11-01T10:37:16.572Z,89.90
2022-11-01T10:39:57.900Z,90.04
2022-11-01T10:42:29.021Z,89.08
2022-11-01T10:44:59.625Z,89.11
2022-11-01T10:47:28.080Z,90.00
2022-11-01T10:50:12.124Z,89.81
2022-11-01T10:52:46.779Z,87.49
2022-11-01T10:55:17.742Z,87.58
2022-11-01T10:57:45.804Z,86.88
2022-11-01T11:00:18.020Z,87.09
2022-11-01T11:02:55.001Z,88.00
2022-11-01T11:05:23.117Z,88.18
2022-11-01T11:07:49.899Z,88.95
2022-11-01T11:10:24.433Z,87.83
2022-11-01T11:12:54.241Z,87.12
2022-11-01T11:15:23.693Z,86.07
2022-11-01T11:17:54.917Z,85.61
2022-11-01T11:20:25.335Z,86.18
2022-11-01T11:22:52.337Z,84.41
2022-11-01T11:25:21.433Z,85.97
2022-11-01T11:27:50.330Z,84.54
2022-11-01T11:30:29.844Z,82.39
2022-11-01T11:32:58.708Z,83.69
2022-11-01T11:35:27.626Z,82.62
2022-11-01T11:38:00.595Z,82.44
2022-11-01T11:40:30.160Z,82.40
2022-11-01T11:43:25.771Z,82.47
2022-11-01T11:46:10.902Z,82.80
2022-11-01T11:48:48.025Z,82.94
2022-11-01T11:51:15.192Z,81.71
2022-11-01T11:53:42.165Z,80.85
2022-11-01T11:56:09.556Z,80.06
2022-11-01T11:58:52.110Z,79.30
2022-11-01T12:01:24.566Z,80.99
2022-11-01T12:04:07.878Z,78.91
2022-11-01T12:06:40.355Z,79.06
2022-11-01T12:09:41.983Z,78.39
2022-11-01T12:12:16.924Z,79.28
2022-11-01T12:14:43.762Z,78.31
2022-11-01T12:17:26.791Z,78.19
2022-11-01T12:20:26.230Z,78.88
2022-11-01T12:23:13.209Z,77.19
2022-11-01T12:25:41.710Z,72.13
2022-11-01T12:28:23.833Z,70.29
2022-11-01T12:30:53.758Z,69.66
2022-11-01T12:33:25.035Z,68.12
2022-11-01T12:35:54.521Z,68.42
2022-11-01T12:38:53.101Z,66.90
2022-11-01T12:41:37.626Z,65.25
2022-11-01T12:44:35.384Z,63.80
2022-11-01T12:47:17.415Z,66.77
2022-11-01T12:50:19.578Z,65.13
2022-11-01T12:52:58.062Z,65.18
2022-11-01T12:55:35.258Z,65.87
2022-11-01T12:58:03.554Z,67.26
2022-11-01T13:00:51.576Z,68.12
2022-11-01T13:03:55.846Z,69.52
2022-11-01T13:06:34.884Z,69.28
2022-11-01T13:09:26.207Z,68.38
2022-11-01T13:12:17.286Z,68.87
2022-11-01T13:14:56.763Z,68.95
2022-11-01T13:17:51.417Z,65.98
2022-11-01T13:20:38.924Z,65.41
2022-11-01T13:23:15.506Z,65.20
2022-11-01T13:25:43.018Z,64.60
2022-11-01T13:28:28.328Z,66.03
2022-11-01T13:31:11.162Z,67.19
2022-11-01T13:34:01.028Z,67.85
2022-11-01T13:36:33.513Z,68.79
2022-11-01T13:39:27.345Z,69.53
2022-11-01T13:42:04.143Z,69.07
2022-11-01T13:44:34.308Z,70.06
2022-11-01T13:47:36.613Z,68.03
2022-11-01T13:50:12.624Z,69.22
2022-11-01T13:52:45.188Z,68.81
2022-11-01T13:55:18.192Z,68.69
2022-11-01T13:57:45.271Z,68.47
2022-11-01T14:00:43.110Z,67.88
2022-11-01T14:03:33.018Z,69.32
2022-11-01T14:06:12.066Z,70.46
2022-11-01T14:08:40.917Z,69.73
2022-11-01T14:11:11.235Z,72.06
2022-11-01T14:13:47.737Z,70.41
2022-11-01T14:16:14.497Z,70.76
2022-11-01T14:19:03.451Z,68.91
2022-11-01T14:21:44.626Z,68.37
2022-11-01T14:24:20.270Z,66.76
2022-11-01T14:26:49.473Z,66.56
2022-11-01T14:29:16.491Z,64.57
2022-11-01T14:31:45.005Z,63.75
2022-11-01T14:34:24.646Z,64.50
2022-11-01T14:36:52.737Z,65.55
2022-11-01T14:39:47.185Z,66.49
2022-11-01T14:42:23.248Z,67.64
2022-11-01T14:44:52.676Z,68.08
2022-11-01T14:47:31.315Z,69.70
2022-11-01T14:49:59.479Z,70.97
2022-11-01T14:52:35.949Z,71.52
2022-11-01T14:55:32.436Z,70.93
2022-11-01T14:58:23.433Z,71.82
2022-11-01T15:00:52.499Z,73.09
2022-11-01T15:03:20.456Z,73.09
2022-11-01T15:05:52.328Z,73.73
2022-11-01T15:08:29.995Z,73.92
2022-11-01T15:10:59.776Z,73.74
2022-11-01T15:13:27.873Z,74.33
2022-11-01T15:16:01.914Z,74.64
2022-11-01T15:18:28.960Z,75.88
2022-11-01T15:20:58.203Z,75.18
2022-11-01T15:23:34.216Z,75.12
2022-11-01T15:26:06.208Z,76.23
2022-11-01T15:28:39.966Z,75.36
2022-11-01T15:31:07.110Z,76.39
2022-11-01T15:33:34.885Z,75.57
2022-11-01T15:36:05.393Z,77.85
2022-11-01T15:38:47.633Z,77.79
2022-11-01T15:41:26.148Z,77.82
2022-11-01T15:43:54.727Z,78.20
2022-11-01T15:46:23.345Z,77.38
2022-11-01T15:48:50.869Z,78.22
2022-11-01T15:51:22.992Z,77.96
2022-11-01T15:53:54.008Z,78.37
2022-11-01T15:56:22.926Z,78.19
2022-11-01T16:01:26.483Z,79.12
2022-11-01T16:04:12.179Z,79.04
2022-11-01T16:06:46.094Z,78.79
2022-11-01T16:09:40.490Z,79.15
2022-11-01T16:12:18.519Z,78.79
2022-11-01T16:14:57.569Z,79.49
2022-11-01T16:17:33.729Z,79.28
2022-11-01T16:20:04.742Z,78.58
2022-11-01T16:22:46.511Z,77.83
2022-11-01T16:25:15.270Z,77.42
2022-11-01T16:28:00.410Z,78.14
2022-11-01T16:30:40.194Z,77.17
2022-11-01T16:33:22.370Z,78.13
2022-11-01T16:36:03.381Z,77.34
2022-11-01T16:38:33.057Z,77.42
2022-11-01T16:41:01.394Z,76.97
2022-11-01T16:43:31.074Z,77.13
2022-11-01T16:45:58.532Z,76.42
2022-11-01T16:48:47.210Z,76.31
2022-11-01T16:51:14.655Z,76.84
2022-11-01T16:53:41.794Z,76.48
2022-11-01T16:59:22.206Z,77.01
2022-11-01T17:01:49.961Z,77.08
2022-11-01T17:04:18.535Z,77.97
2022-11-01T17:06:45.497Z,77.92
2022-11-01T17:09:14.277Z,77.87
2022-11-01T17:11:45.099Z,77.75
2022-11-01T17:14:15.153Z,78.21
2022-11-01T17:16:43.500Z,77.53
2022-11-01T17:19:25.968Z,78.38
2022-11-01T17:21:53.860Z,77.15
2022-11-01T17:24:22.739Z,77.05
2022-11-01T17:26:50.875Z,75.81
2022-11-01T17:29:17.602Z,73.25
2022-11-01T17:31:44.461Z,71.92
2022-11-01T17:34:11.250Z,70.99
2022-11-01T17:36:38.591Z,70.79
2022-11-01T17:39:05.456Z,71.10
2022-11-01T17:41:32.281Z,71.39
2022-11-01T17:43:59.038Z,71.81
2022-11-01T17:46:26.306Z,72.24
2022-11-01T17:48:53.238Z,73.40
2022-11-01T17:51:20.244Z,73.75
2022-11-01T17:53:47.072Z,74.07
2022-11-01T17:56:13.980Z,74.21
2022-11-01T17:58:40.687Z,74.68
2022-11-01T18:01:08.371Z,74.05
2022-11-01T18:03:35.250Z,73.42
2022-11-01T18:06:02.176Z,73.21
2022-11-01T18:08:31.084Z,73.82
2022-11-01T18:11:13.257Z,73.75
2022-11-01T18:14:06.635Z,73.63
2022-11-01T18:16:57.305Z,73.01
2022-11-01T18:19:45.777Z,74.48
2022-11-01T18:22:46.263Z,74.64
2022-11-01T18:25:48.995Z,73.70
2022-11-01T18:28:24.089Z,74.20
2022-11-01T18:30:55.486Z,73.80
2022-11-01T18:33:28.515Z,74.08
2022-11-01T18:36:01.649Z,74.39
2022-11-01T18:38:49.380Z,73.97
2022-11-01T18:41:20.560Z,74.67
2022-11-01T18:43:54.136Z,74.57
2022-11-01T18:46:27.346Z,75.33
2022-11-01T18:49:01.095Z,74.68
2022-11-01T18:51:31.178Z,75.53
2022-11-01T18:54:10.226Z,74.78
2022-11-01T18:56:38.545Z,75.85
2022-11-01T18:59:29.359Z,76.86
2022-11-01T19:02:19.580Z,76.18
2022-11-01T19:04:47.468Z,76.02
2022-11-01T19:07:20.134Z,76.01
2022-11-01T19:09:57.812Z,76.58
2022-11-01T19:12:29.815Z,75.79
2022-11-01T19:14:59.951Z,76.25
2022-11-01T19:17:35.672Z,76.35
2022-11-01T19:20:02.496Z,76.14
2022-11-01T19:22:47.215Z,75.75
2022-11-01T19:25:23.195Z,76.16
2022-11-01T19:27:52.852Z,76.55
2022-11-01T19:30:31.010Z,76.39
2022-11-01T19:33:40.131Z,75.42
2022-11-01T19:36:40.468Z,77.03
2022-11-01T19:39:48.827Z,76.45
2022-11-01T19:42:26.631Z,76.18
2022-11-01T19:44:58.186Z,76.07
2022-11-01T19:47:40.906Z,76.59
2022-11-01T19:50:23.518Z,76.69
2022-11-01T19:52:51.437Z,76.56
2022-11-01T19:55:36.471Z,76.94
2022-11-01T19:58:15.646Z,77.38
2022-11-01T20:00:42.540Z,77.44
2022-11-01T20:03:21.544Z,77.63
2022-11-01T20:05:48.357Z,77.07
2022-11-01T20:08:33.534Z,77.30
2022-11-01T20:11:00.612Z,77.60
2022-11-01T20:13:27.363Z,77.10
2022-11-01T20:15:54.184Z,77.14
2022-11-01T20:18:20.907Z,77.56
2022-11-01T20:20:47.953Z,77.26
2022-11-01T20:23:30.067Z,77.17
2022-11-01T20:25:56.889Z,77.75
2022-11-01T20:28:23.750Z,78.32
2022-11-01T20:30:50.505Z,78.40
2022-11-01T20:33:17.274Z,78.51
2022-11-01T20:35:44.433Z,78.68
2022-11-01T20:38:11.356Z,78.67
2022-11-01T20:40:38.179Z,78.44
2022-11-01T20:43:06.530Z,78.93
2022-11-01T20:45:36.309Z,78.32
2022-11-01T20:48:03.905Z,77.90
2022-11-01T20:50:30.703Z,78.43
2022-11-01T20:52:57.419Z,77.94
2022-11-01T20:55:24.335Z,78.06
2022-11-01T20:57:51.835Z,78.10
2022-11-01T21:00:18.962Z,77.99
2022-11-01T21:02:46.721Z,77.73
2022-11-01T21:05:28.132Z,78.00
2022-11-01T21:08:13.161Z,77.78
2022-11-01T21:10:41.929Z,76.97
2022-11-01T21:13:31.154Z,77.25
2022-11-01T21:16:00.467Z,77.68
2022-11-01T21:18:32.730Z,77.91
2022-11-01T21:21:10.559Z,78.26
2022-11-01T21:23:39.551Z,77.99
2022-11-01T21:26:30.856Z,78.39
2022-11-01T21:29:05.634Z,78.83
2022-11-01T21:31:34.479Z,79.58
2022-11-01T21:34:06.183Z,80.52
2022-11-01T21:36:35.183Z,79.96
2022-11-01T21:39:22.843Z,80.84
2022-11-01T21:41:57.553Z,80.79
2022-11-01T21:44:27.162Z,81.07
2022-11-01T21:46:54.900Z,81.58
2022-11-01T21:49:29.314Z,81.85
2022-11-01T21:51:58.933Z,82.65
2022-11-01T21:54:27.269Z,81.67
2022-11-01T21:56:55.692Z,82.90
2022-11-01T21:59:26.132Z,83.85
2022-11-01T22:01:54.306Z,84.23
2022-11-01T22:04:24.755Z,85.49
2022-11-01T22:06:54.567Z,86.23
2022-11-01T22:09:21.749Z,86.72
2022-11-01T22:11:48.561Z,87.23
2022-11-01T22:14:15.387Z,87.08
2022-11-01T22:16:42.262Z,86.43
2022-11-01T22:19:09.017Z,87.12
2022-11-01T22:21:36.051Z,87.37
2022-11-01T22:24:03.374Z,87.41
2022-11-01T22:26:30.145Z,86.02
2022-11-01T22:28:56.874Z,86.09
2022-11-01T22:31:23.965Z,86.77
2022-11-01T22:33:54.722Z,86.61
2022-11-01T22:36:24.586Z,86.01
2022-11-01T22:38:52.231Z,85.00
2022-11-01T22:41:35.450Z,85.45
2022-11-01T22:44:26.551Z,84.83
2022-11-01T22:46:58.899Z,85.24
2022-11-01T22:49:42.127Z,84.92
2022-11-01T22:52:43.419Z,84.08
2022-11-01T22:55:10.217Z,83.90
2022-11-01T22:57:51.559Z,85.26
2022-11-01T23:00:37.152Z,83.95
2022-11-01T23:03:19.898Z,84.16
2022-11-01T23:05:55.544Z,83.38
2022-11-01T23:08:30.301Z,82.39
2022-11-01T23:10:57.519Z,82.67
2022-11-01T23:13:49.053Z,82.25
2022-11-01T23:16:40.425Z,81.96
2022-11-01T23:19:13.262Z,82.81
2022-11-01T23:21:40.202Z,82.14
2022-11-01T23:24:07.895Z,83.67
2022-11-01T23:26:34.955Z,84.65
2022-11-01T23:29:02.416Z,85.08
2022-11-01T23:31:29.571Z,86.20
2022-11-01T23:33:56.369Z,85.57
2022-11-01T23:36:26.384Z,86.62
2022-11-01T23:38:55.595Z,86.26
2022-11-01T23:41:27.982Z,85.95
2022-11-01T23:43:59.602Z,85.97
2022-11-01T23:46:26.929Z,86.29
2022-11-01T23:49:04.311Z,86.79
2022-11-01T23:51:31.949Z,85.70
2022-11-01T23:53:59.079Z,85.45
2022-11-01T23:56:26.164Z,86.06
2022-11-01T23:58:56.641Z,84.81
